Date,TemperatureHighF,TemperatureAvgF,TemperatureLowF,DewpointHighF,DewpointAvgF,DewpointLowF,HumidityHigh,HumidityAvg,HumidityLow,PressureMaxIn,PressureMinIn,WindSpeedMaxMPH,WindSpeedAvgMPH,GustSpeedMaxMPH,PrecipitationSumIn
2014-1-1,69.8,48.9,34.6,48.8,36.2,25.8,84,64,40,30.21,29.84,32,8,32,0.00
2014-1-2,42.2,32.9,26.0,25.4,21.1,17.5,81,63,41,30.49,30.21,26,10,26,0.00
2014-1-3,53.1,39.7,27.3,27.5,24.8,22.8,86,59,32,30.46,30.02,22,8,22,0.00
2014-1-4,69.8,54.6,41.0,52.8,43.9,26.0,87,68,48,30.02,29.70,24,8,24,0.00
2014-1-5,53.6,33.7,22.2,37.8,21.4,9.3,76,61,47,30.58,29.76,30,16,30,0.00
2014-1-6,32.4,23.5,17.0,15.5,8.2,4.0,73,53,33,30.78,30.57,22,8,22,0.00
2014-1-7,47.9,34.4,21.1,18.7,14.5,12.5,75,47,26,30.59,30.27,20,7,20,0.00
2014-1-8,47.9,43.3,39.4,46.8,37.6,18.3,96,82,39,30.27,30.09,18,6,18,0.12
2014-1-9,48.1,45.2,41.0,47.0,43.9,39.9,97,95,93,30.20,29.97,9,1,9,0.06
2014-1-10,69.5,58.3,47.0,62.4,53.3,40.5,98,85,56,29.97,29.64,14,3,18,0.14
2014-1-11,67.9,51.5,37.8,41.9,34.9,26.3,91,59,22,30.09,29.80,16,2,16,0.00
2014-1-12,73.0,59.2,41.9,55.6,40.2,32.2,80,52,26,30.02,29.76,33,12,33,0.00
2014-1-13,63.1,56.0,41.1,57.5,34.8,20.0,85,48,21,30.05,29.74,27,9,27,0.00
2014-1-14,64.8,48.4,34.8,37.2,29.1,20.7,77,50,27,30.34,29.98,25,6,25,0.00
2014-1-15,58.0,45.0,35.3,27.9,25.3,20.4,71,47,29,30.40,30.07,10,2,14,0.00
2014-1-16,64.5,53.4,39.0,35.1,28.1,12.4,70,40,19,30.17,30.00,20,5,20,0.00
2014-1-17,54.3,48.2,38.2,27.7,17.3,10.5,62,31,18,30.36,30.17,22,7,22,0.00
2014-1-18,69.1,52.8,38.4,33.9,27.7,20.9,58,40,24,30.17,30.01,18,4,20,0.00
2014-1-19,66.5,50.3,34.8,33.2,29.8,26.0,84,49,23,30.29,30.02,10,1,10,0.00
2014-1-20,73.2,58.4,45.9,41.6,34.1,27.3,57,41,27,30.20,29.80,22,6,22,0.00
2014-1-21,55.0,44.2,38.1,28.4,19.4,11.2,48,38,23,30.44,30.15,23,7,23,0.00
2014-1-22,60.1,45.7,33.5,30.5,25.1,18.0,67,46,29,30.17,30.01,17,4,17,0.00
2014-1-23,45.9,34.2,25.0,25.2,12.6,0.1,55,41,29,30.77,30.16,28,17,28,0.00
2014-1-24,43.4,30.8,20.6,15.6,6.5,1.2,52,37,18,30.77,30.23,18,7,18,0.00
2014-1-25,69.1,46.6,29.2,37.1,27.5,15.4,72,50,28,30.23,29.95,12,2,12,0.00
2014-1-26,75.8,58.4,47.3,41.0,37.4,34.6,65,48,25,29.95,29.60,14,2,14,0.00
2014-1-27,51.0,37.2,25.9,38.9,10.6,-2.4,67,35,21,30.36,29.74,43,18,43,0.00
2014-1-28,35.4,28.1,23.5,17.6,8.8,-0.8,70,45,31,30.53,30.35,20,9,23,0.00
2014-1-29,48.1,33.7,20.2,19.9,15.4,11.3,85,52,23,30.48,30.17,15,6,15,0.00
2014-1-30,58.6,45.5,32.6,48.0,31.5,14.1,84,58,42,30.17,29.80,35,13,35,0.00
2014-1-31,73.7,63.6,52.8,59.4,53.5,48.0,87,71,49,29.85,29.72,24,10,24,0.00
2014-2-1,65.7,51.2,40.2,59.6,42.3,30.1,83,72,63,30.03,29.71,28,10,28,0.00
2014-2-2,40.1,34.1,30.6,32.0,29.0,26.3,91,82,68,30.29,30.02,23,13,23,0.14
2014-2-3,44.4,36.3,30.8,36.2,30.5,26.0,84,80,69,30.31,30.00,12,4,12,0.00
2014-2-4,47.0,42.6,39.3,42.0,38.4,33.8,94,85,75,30.12,29.87,21,4,21,0.19
2014-2-5,39.6,29.6,22.8,33.9,20.9,14.8,80,70,62,30.56,30.12,26,15,26,0.00
2014-2-6,24.8,21.7,17.3,19.4,15.5,9.9,87,77,68,30.62,30.42,22,9,22,0.00
2014-2-7,33.7,29.3,24.0,29.1,22.7,17.0,86,76,68,30.43,30.22,8,2,9,0.00
2014-2-8,56.2,41.7,32.8,41.9,35.7,29.1,91,80,56,30.23,29.98,13,4,13,0.00
2014-2-9,48.5,42.7,37.7,43.5,40.0,35.1,94,90,80,30.13,30.00,18,3,18,0.00
2014-2-10,37.7,33.0,30.6,35.4,31.1,28.6,94,93,91,30.29,30.12,20,11,20,0.01
2014-2-11,36.1,32.2,28.6,29.1,26.8,24.0,93,81,71,30.36,30.18,20,9,20,0.00
2014-2-12,50.6,40.4,32.0,33.4,29.2,25.9,81,65,49,30.24,30.04,12,4,12,0.00
2014-2-13,67.8,48.3,31.2,41.3,35.6,27.8,91,65,35,30.05,29.84,16,2,16,0.00
2014-2-14,69.8,55.2,43.5,41.6,35.5,21.9,82,52,18,30.08,29.70,28,6,28,0.00
2014-2-15,69.7,51.4,36.6,38.1,33.4,30.4,83,55,26,30.13,29.96,20,3,20,0.00
2014-2-16,76.6,62.0,49.6,59.0,51.8,37.8,90,70,51,30.02,29.83,25,4,25,0.00
2014-2-17,73.4,64.6,51.7,59.8,41.1,24.8,91,50,17,30.11,29.83,25,7,25,0.00
2014-2-18,81.5,63.0,44.2,60.5,47.8,33.7,77,59,33,30.09,29.80,20,3,20,0.00
2014-2-19,70.4,66.0,61.5,62.4,61.0,58.0,94,84,75,29.88,29.59,24,6,24,0.00
2014-2-20,72.2,63.9,45.6,62.7,46.3,27.0,82,56,29,30.09,29.57,33,14,33,0.00
2014-2-21,67.2,53.3,36.2,36.2,28.9,17.4,86,45,19,30.17,29.97,14,4,14,0.00
2014-2-22,75.3,63.2,52.1,53.9,42.9,29.1,72,48,40,29.99,29.77,25,9,25,0.00
2014-2-23,69.0,59.5,50.6,58.9,49.8,38.9,94,72,49,30.11,29.82,20,7,20,0.00
2014-2-24,57.4,51.5,43.4,47.6,42.2,38.0,82,71,61,30.17,30.02,10,2,10,0.00
2014-2-25,55.3,49.9,43.0,46.4,42.2,30.0,91,75,49,30.14,30.01,22,6,22,0.06
2014-2-26,43.7,37.9,31.7,33.8,21.4,16.1,68,52,40,30.34,30.14,31,13,31,0.01
2014-2-27,58.0,43.4,28.3,32.4,25.2,20.5,81,52,27,30.17,29.84,14,3,14,0.00
2014-2-28,83.7,60.5,44.3,52.6,41.1,32.2,77,54,16,29.85,29.63,22,8,22,0.00
2014-3-1,82.0,65.8,51.5,64.8,57.1,48.4,94,75,42,29.95,29.80,20,3,20,0.00
2014-3-2,70.6,31.6,20.7,63.4,27.3,14.3,89,84,71,30.39,29.89,30,15,30,0.01
2014-3-3,33.7,24.9,17.6,20.3,15.7,11.0,76,68,56,30.53,30.34,21,10,21,0.00
2014-3-4,53.4,38.2,27.8,33.6,25.7,18.8,76,62,40,30.36,30.01,12,2,12,0.00
2014-3-5,56.6,45.7,34.8,37.6,33.2,30.7,87,64,43,30.17,29.94,22,2,22,0.00
2014-3-6,55.5,46.3,40.9,39.5,37.5,34.4,85,72,54,30.25,30.03,16,6,16,0.00
2014-3-7,67.8,52.8,39.5,46.5,40.0,35.3,88,65,35,30.03,29.80,24,7,24,0.00
2014-3-8,55.9,48.9,39.7,51.0,42.3,33.7,85,78,69,30.32,29.85,20,9,20,0.00
2014-3-9,64.6,48.9,38.1,45.0,38.5,33.1,83,69,48,30.36,30.17,13,5,15,0.00
2014-3-10,78.9,61.8,44.5,56.6,46.5,41.1,92,62,28,30.18,29.81,16,3,16,0.00
2014-3-11,82.5,67.9,56.9,59.5,54.6,38.9,90,65,41,29.85,29.47,26,10,26,0.00
2014-3-12,61.1,53.5,45.4,39.2,29.2,21.0,64,42,22,30.28,29.85,33,14,33,0.00
2014-3-13,45.4,43.7,41.9,32.7,31.7,29.0,66,63,59,30.26,30.25,2,0,2,0.00
2014-3-14,63.9,63.6,63.1,60.2,59.9,59.5,88,88,87,29.87,29.86,7,2,14,0.00
2014-3-15,67.7,56.5,45.4,62.4,52.7,37.1,95,87,72,30.02,29.63,18,6,32,0.01
2014-3-16,45.5,43.4,39.7,37.7,34.3,30.8,76,70,63,30.06,29.96,17,10,30,0.01
2014-3-17,64.1,52.4,38.5,34.3,29.7,24.3,74,44,23,30.01,29.67,15,4,15,0.00
2014-3-18,83.3,65.8,50.3,50.5,40.4,29.0,60,41,21,29.89,29.54,24,12,26,0.00
2014-3-19,64.1,55.3,46.5,40.7,35.1,30.7,71,47,33,30.19,29.90,21,8,21,0.00
2014-3-20,75.3,58.6,41.3,40.2,34.4,28.5,84,46,18,30.21,29.96,15,2,15,0.00
2014-3-21,81.5,67.2,53.0,60.4,51.1,34.5,75,57,44,29.96,29.75,31,6,31,0.00
2014-3-22,67.1,59.9,51.3,60.4,49.5,42.3,84,69,50,30.11,29.87,20,7,20,0.00
2014-3-23,58.4,52.3,46.6,42.2,33.9,27.7,65,50,40,30.35,30.10,31,10,31,0.00
2014-3-24,69.0,54.6,39.9,43.3,37.9,31.2,78,55,36,30.23,30.00,13,1,13,0.00
2014-3-25,65.4,54.2,42.2,42.9,30.1,24.1,72,42,24,30.39,30.14,16,5,17,0.00
2014-3-26,62.4,54.2,46.0,52.1,41.0,30.4,77,61,46,30.17,29.86,28,9,28,0.03
2014-3-27,82.4,68.7,58.4,66.8,61.3,51.9,94,78,56,29.86,29.61,23,10,26,0.02
2014-3-28,83.1,68.1,54.2,67.3,58.9,42.6,93,74,44,30.06,29.68,23,6,23,0.00
2014-3-29,73.9,59.9,47.5,44.3,39.7,31.8,77,51,23,30.28,30.05,17,6,17,0.00
2014-3-30,80.1,65.3,49.3,49.1,42.2,37.4,72,46,26,30.18,29.93,24,8,24,0.00
2014-3-31,82.3,69.2,58.6,60.0,56.1,47.2,83,64,46,29.93,29.77,23,12,23,0.00
2014-4-1,85.0,73.9,66.2,66.6,63.1,59.3,85,70,49,29.94,29.79,20,8,21,0.00
2014-4-2,84.1,75.7,71.0,69.6,67.4,66.1,86,76,56,29.81,29.64,27,10,27,0.00
2014-4-3,85.5,75.9,60.2,69.4,66.2,43.5,84,73,52,29.88,29.55,31,15,31,0.06
2014-4-4,67.2,56.9,47.1,43.2,36.7,33.0,67,48,30,30.18,29.88,27,10,27,0.00
2014-4-5,57.4,54.1,51.0,45.3,39.5,31.9,74,58,45,30.13,29.93,17,2,17,0.01
2014-4-6,52.7,50.4,47.6,50.4,46.6,41.9,94,87,68,29.95,29.75,17,5,17,0.53
2014-4-7,68.7,56.6,49.4,51.0,49.1,44.0,94,78,46,29.98,29.78,31,2,31,0.02
2014-4-8,70.4,58.6,45.7,50.1,41.4,34.0,87,57,27,30.15,29.97,30,10,30,0.01
2014-4-9,82.8,67.4,45.6,49.1,44.3,37.9,90,48,25,30.20,29.97,16,6,16,0.00
2014-4-10,86.5,73.6,61.4,57.5,54.1,48.3,76,52,34,29.97,29.79,25,14,26,0.00
2014-4-11,84.3,73.0,63.8,64.1,60.3,54.8,83,66,50,29.97,29.84,24,10,24,0.00
2014-4-12,85.1,74.8,66.9,63.7,61.9,60.0,80,65,47,29.89,29.71,26,15,26,0.00
2014-4-13,79.1,71.3,66.5,69.6,65.2,61.4,93,81,65,29.76,29.51,30,14,30,0.38
2014-4-14,73.0,50.5,45.4,67.2,39.2,32.6,82,66,47,30.25,29.65,26,15,26,0.00
2014-4-15,67.4,51.7,36.8,34.6,27.9,19.3,79,45,17,30.32,30.04,12,2,12,0.00
2014-4-16,70.4,59.1,46.0,45.3,38.4,32.6,63,47,33,30.11,29.90,30,10,30,0.00
2014-4-17,65.0,59.1,52.3,56.1,50.8,42.1,84,74,57,30.19,29.99,17,3,17,0.02
2014-4-18,81.1,66.8,57.2,55.4,51.9,47.0,91,63,33,30.22,30.07,7,0,12,0.05
2014-4-19,82.0,68.4,55.8,57.3,53.4,48.9,83,60,39,30.17,30.04,15,1,15,0.00
2014-4-20,82.4,69.7,63.3,62.2,57.3,52.8,94,67,38,30.10,29.99,18,3,18,0.43
2014-4-21,86.2,71.1,62.4,68.3,63.8,60.7,95,79,53,30.05,29.87,14,2,14,0.12
2014-4-22,88.2,72.7,61.8,63.8,59.5,54.4,95,67,34,30.04,29.87,13,1,13,0.00
2014-4-23,88.5,75.1,61.1,64.4,60.1,56.2,89,62,37,29.91,29.68,23,6,23,0.00
2014-4-24,82.5,74.6,67.7,65.5,57.5,45.6,83,59,29,29.92,29.70,24,12,24,0.00
2014-4-25,86.7,72.8,57.4,50.0,43.6,35.4,61,38,20,30.03,29.84,16,2,16,0.00
2014-4-26,84.5,73.8,61.8,69.8,61.2,46.1,82,66,43,29.84,29.59,26,9,26,0.00
2014-4-27,91.9,81.3,73.3,71.8,58.0,32.7,84,54,17,29.60,29.34,24,11,24,0.00
2014-4-28,84.5,75.3,65.7,47.2,40.1,30.6,43,29,16,29.67,29.45,17,5,17,0.00
2014-4-29,74.8,67.6,60.2,48.5,39.6,33.4,57,37,23,29.94,29.61,27,12,27,0.00
2014-4-30,67.6,59.4,51.4,43.5,36.7,29.0,67,44,24,30.15,29.94,24,10,24,0.00
2014-5-1,74.0,61.4,46.2,44.8,37.7,29.3,85,47,21,30.16,29.98,20,4,20,0.00
2014-5-2,82.0,67.6,51.2,46.2,38.5,25.3,74,40,14,30.02,29.87,21,4,21,0.00
2014-5-3,93.0,73.2,52.3,52.3,42.6,27.4,86,42,12,30.01,29.91,10,1,10,0.00
2014-5-4,95.0,79.9,67.0,48.6,44.5,37.6,47,31,14,29.99,29.85,25,8,25,0.00
2014-5-5,91.5,78.4,66.5,60.4,53.6,41.6,60,43,32,29.89,29.70,23,11,29,0.00
2014-5-6,88.5,77.9,65.7,65.8,62.0,58.1,81,59,45,29.76,29.63,30,14,30,0.00
2014-5-7,87.2,77.4,70.8,68.2,65.3,62.1,78,67,53,29.78,29.68,26,14,26,0.00
2014-5-8,76.9,70.3,64.3,72.9,66.4,61.9,94,88,71,29.86,29.67,24,4,24,0.65
2014-5-9,92.0,77.8,64.4,71.9,64.3,51.3,96,69,27,29.87,29.74,20,2,20,0.01
2014-5-10,89.9,77.7,65.7,70.5,65.1,60.3,86,67,48,29.88,29.72,24,9,24,0.00
2014-5-11,89.0,80.1,73.8,70.9,69.4,67.5,86,71,52,29.79,29.64,26,13,26,0.00
2014-5-12,83.9,73.0,60.1,74.1,67.4,56.4,93,83,70,30.04,29.68,29,10,32,0.71
2014-5-13,68.8,61.6,56.1,56.6,50.1,47.0,89,67,50,30.24,30.01,28,12,28,0.05
2014-5-14,72.6,63.2,54.0,53.1,45.7,38.1,91,57,29,30.26,30.15,26,9,26,0.14
2014-5-15,83.3,68.8,54.0,48.8,42.9,32.7,79,46,17,30.23,30.02,17,5,17,0.00
2014-5-16,88.3,73.4,58.3,55.9,49.8,44.1,78,46,22,30.10,29.83,17,4,18,0.00
2014-5-17,84.3,75.4,62.9,61.3,53.7,44.6,64,48,35,29.98,29.83,18,3,18,0.00
2014-5-18,85.6,75.3,64.3,62.6,60.3,56.3,87,61,42,30.05,29.92,20,7,20,0.00
2014-5-19,87.0,76.8,66.1,63.8,61.8,59.8,83,61,44,30.00,29.85,29,15,29,0.00
2014-5-20,88.7,79.2,70.8,65.7,63.4,60.6,78,60,40,30.00,29.89,24,13,26,0.00
2014-5-21,89.5,79.3,71.0,65.7,64.2,62.7,80,61,43,30.03,29.91,24,10,24,0.00
2014-5-22,90.2,79.2,69.9,67.2,65.7,63.3,83,65,45,30.07,29.92,17,7,17,0.00
2014-5-23,84.7,77.9,72.4,68.0,66.4,63.7,78,68,53,30.05,29.95,13,4,13,0.00
2014-5-24,89.0,79.4,72.7,68.3,66.7,64.9,78,66,49,30.02,29.90,20,6,20,0.00
2014-5-25,88.9,76.5,70.8,70.6,68.2,63.2,92,76,49,29.97,29.84,21,6,21,0.60
2014-5-26,82.4,75.2,70.2,70.7,66.9,61.7,90,76,58,30.01,29.89,18,2,18,0.01
2014-5-27,70.5,68.1,65.8,65.8,64.6,63.7,94,89,81,29.96,29.83,12,1,12,0.16
2014-5-29,89.5,85.1,78.5,67.7,65.9,64.0,67,53,44,29.86,29.75,12,4,12,0.00
2014-5-30,88.3,78.9,70.7,70.5,67.5,65.5,87,70,49,29.86,29.77,15,3,15,0.02
2014-5-31,91.3,79.0,72.5,71.7,70.0,68.5,90,75,50,29.93,29.83,12,1,12,0.00
2014-6-1,92.6,82.3,72.3,72.0,70.2,67.5,91,69,48,29.93,29.78,18,3,18,0.00
2014-6-2,93.1,83.2,75.0,71.9,70.4,68.0,85,67,45,29.97,29.80,20,6,20,0.00
2014-6-3,92.7,83.8,75.5,73.0,71.2,68.7,87,67,50,29.98,29.83,18,3,18,0.00
2014-6-4,94.0,84.6,76.5,72.8,71.4,70.1,86,66,48,29.84,29.71,21,9,21,0.00
2014-6-5,91.5,83.4,75.2,73.6,71.8,70.0,85,69,53,29.81,29.72,23,8,23,0.00
2014-6-6,94.8,84.7,75.9,73.6,71.1,68.2,86,66,44,29.91,29.74,20,6,20,0.00
2014-6-7,96.3,85.9,76.5,71.8,70.3,68.1,82,62,42,29.90,29.77,23,7,23,0.00
2014-6-8,88.2,81.3,71.1,73.3,70.4,66.2,91,70,54,29.97,29.73,20,5,20,0.09
2014-6-9,80.7,74.1,64.7,73.8,65.9,61.3,93,77,55,29.81,29.69,33,5,33,0.49
2014-6-10,84.8,76.0,66.7,64.2,61.0,57.6,75,61,47,29.83,29.72,21,8,21,0.00
2014-6-11,96.1,81.6,65.1,69.8,64.7,61.1,92,60,33,29.87,29.69,15,4,15,0.00
2014-6-12,85.3,79.5,72.1,73.3,70.0,66.7,88,73,59,29.94,29.68,28,4,28,0.07
2014-6-13,92.6,82.6,74.2,71.1,69.7,66.9,85,66,48,29.97,29.83,14,2,14,0.00
2014-6-14,91.5,83.0,74.8,73.5,71.4,68.2,86,69,52,29.88,29.74,24,8,24,0.00
2014-6-15,94.3,84.9,76.7,72.7,71.4,70.0,83,65,47,29.89,29.74,26,12,26,0.00
2014-6-16,95.2,85.5,76.6,73.4,71.7,68.6,87,65,45,29.98,29.84,26,12,26,0.00
2014-6-17,95.0,86.1,78.0,73.4,71.6,68.2,84,64,43,29.96,29.83,23,13,24,0.00
2014-6-18,96.2,84.1,77.3,73.7,71.6,68.7,83,68,44,29.94,29.83,25,12,25,0.07
2014-6-19,96.7,86.3,76.6,73.2,71.5,68.3,86,63,42,30.01,29.91,24,9,24,0.00
2014-6-20,96.4,85.7,77.3,72.5,69.7,63.1,83,61,35,30.06,29.94,16,2,18,0.00
2014-6-21,90.1,84.1,79.3,72.4,70.6,66.3,77,65,49,30.00,29.86,13,2,13,0.00
2014-6-22,83.8,76.3,70.1,73.1,70.8,67.3,93,84,66,29.96,29.79,24,4,24,0.67
2014-6-23,88.8,77.6,68.5,73.5,69.6,66.0,94,78,52,29.94,29.77,28,4,28,0.40
2014-6-24,96.3,81.7,71.9,74.2,71.1,64.5,90,72,48,30.00,29.90,30,2,30,0.45
2014-6-25,90.9,77.4,72.1,75.9,72.7,69.6,95,86,60,30.02,29.90,24,2,24,0.47
2014-6-26,91.6,80.1,71.8,74.6,71.5,69.6,95,77,50,29.99,29.81,18,7,20,0.00
2014-6-27,92.9,82.3,74.7,75.2,71.8,69.1,86,72,52,29.88,29.74,24,11,24,0.00
2014-6-28,92.3,83.8,77.2,77.1,73.7,71.3,88,73,55,29.88,29.79,21,8,24,0.00
2014-6-29,95.3,86.8,79.9,76.5,73.8,72.2,83,66,50,29.97,29.86,25,11,25,0.00
2014-6-30,96.4,86.4,77.5,73.8,71.3,65.4,82,63,38,29.94,29.79,26,13,26,0.00
2014-7-1,95.8,85.6,76.0,73.2,71.7,67.8,86,65,43,29.95,29.79,23,7,23,0.00
2014-7-2,96.4,86.1,78.5,72.7,70.2,67.2,77,60,40,30.05,29.90,13,3,14,0.00
2014-7-3,88.7,80.1,70.6,71.2,68.1,65.8,89,68,49,30.16,30.03,24,4,24,0.01
2014-7-4,97.4,84.8,74.7,72.5,69.4,67.1,84,62,38,30.18,30.07,18,1,18,0.00
2014-7-5,95.8,84.5,74.7,72.7,71.0,68.3,87,66,42,30.15,30.00,15,3,15,0.00
2014-7-6,96.8,85.6,75.7,72.0,69.8,65.7,84,61,37,30.02,29.89,17,3,17,0.00
2014-7-7,98.5,87.0,76.7,72.4,69.6,65.4,82,59,39,29.95,29.84,18,3,18,0.00
2014-7-8,100.6,88.9,78.8,73.3,69.9,64.3,76,55,34,29.97,29.86,17,4,17,0.00
2014-7-9,100.8,89.1,78.7,71.2,68.1,63.6,69,51,34,30.01,29.87,14,2,14,0.00
2014-7-10,98.7,88.7,78.5,71.0,66.5,60.7,72,50,30,30.00,29.88,20,6,20,0.00
2014-7-11,97.7,87.6,77.5,69.0,65.8,60.2,71,50,33,30.08,29.98,21,8,21,0.00
2014-7-12,100.0,88.8,77.7,68.4,64.9,57.0,68,48,30,30.13,29.98,20,3,20,0.00
2014-7-13,103.7,90.9,80.0,72.0,68.4,63.2,70,50,28,30.06,29.91,12,1,12,0.00
2014-7-14,102.1,87.2,77.5,74.8,70.0,65.7,88,59,33,29.96,29.85,17,3,17,0.20
2014-7-15,93.7,83.8,76.6,74.1,61.6,46.9,88,52,25,30.03,29.91,20,7,20,0.00
2014-7-16,96.2,81.1,70.6,73.5,64.0,53.3,90,58,39,30.00,29.82,16,3,16,0.16
2014-7-17,79.1,73.3,68.0,73.5,69.2,65.5,94,87,75,29.93,29.83,16,4,16,1.00
2014-7-18,77.0,70.9,65.6,67.1,64.6,62.6,94,81,67,30.00,29.91,13,6,13,0.00
2014-7-19,80.2,73.2,68.6,66.2,64.9,63.8,87,76,61,30.02,29.95,0,0,0,0.00
2014-7-20,95.7,79.9,66.9,74.3,69.6,64.5,93,73,49,30.02,29.88,12,1,12,0.00
2014-7-21,100.3,86.1,74.6,77.8,73.1,69.2,90,68,42,30.02,29.90,12,1,12,0.00
2014-7-22,100.8,88.2,78.0,77.2,73.1,69.7,85,63,39,30.04,29.95,13,0,13,0.00
2014-7-23,101.2,86.6,75.8,73.0,70.8,67.7,85,62,39,30.07,29.94,20,1,20,0.00
2014-7-24,99.8,85.9,74.8,72.1,68.7,64.7,85,59,34,30.03,29.89,14,1,14,0.00
2014-7-25,102.9,88.6,75.5,72.9,70.6,65.5,88,59,32,29.97,29.84,14,2,14,0.00
2014-7-26,102.6,90.9,80.5,73.0,70.3,65.2,75,53,32,29.96,29.83,17,5,17,0.00
2014-7-27,106.8,90.1,81.1,72.7,70.7,65.7,74,56,28,29.99,29.90,15,3,15,0.00
2014-7-28,95.3,84.4,74.7,72.1,65.9,61.3,71,55,38,30.11,30.01,16,4,23,0.00
2014-7-29,85.8,79.3,73.9,67.9,65.4,60.2,80,64,49,30.11,29.97,7,0,11,0.00
2014-7-30,91.3,83.1,75.7,74.5,72.2,67.8,92,71,54,30.03,29.84,20,4,20,0.18
2014-7-31,82.1,75.9,71.3,72.3,69.4,66.1,89,81,65,30.00,29.86,21,6,21,0.00
2014-8-1,82.6,74.5,70.2,68.9,67.4,66.2,90,79,62,30.04,29.96,13,6,13,0.00
2014-8-2,90.7,78.6,69.0,69.0,67.4,66.2,92,71,46,30.08,29.98,14,2,14,0.00
2014-8-3,93.8,82.7,72.9,71.1,68.6,66.6,88,64,42,30.07,29.95,13,3,13,0.00
2014-8-4,95.4,84.9,74.9,72.5,68.7,63.9,85,61,36,30.05,29.94,12,1,12,0.00
2014-8-5,101.0,85.3,75.3,75.1,71.0,67.2,84,65,35,30.04,29.92,18,1,18,0.12
2014-8-6,103.3,89.4,79.9,74.6,70.8,66.2,79,57,32,29.99,29.83,18,4,18,0.00
2014-8-7,101.0,90.2,79.6,74.4,71.3,67.2,75,56,36,29.90,29.73,13,2,13,0.00
2014-8-8,105.9,91.1,82.8,74.9,71.7,67.0,73,55,30,29.89,29.77,17,5,21,0.00
2014-8-9,104.2,91.3,81.5,73.0,70.5,65.0,72,53,30,29.93,29.82,15,4,15,0.00
2014-8-10,103.1,89.7,81.3,73.7,70.8,66.3,74,56,32,29.98,29.85,15,2,15,0.00
2014-8-11,96.2,87.5,81.2,72.2,68.8,64.3,68,55,36,30.02,29.92,18,5,18,0.00
2014-8-12,93.1,85.5,78.5,72.7,64.5,57.7,78,52,32,30.05,29.95,17,6,20,0.00
2014-8-13,96.1,84.2,72.5,62.8,60.5,57.7,70,47,29,30.07,29.94,12,1,12,0.00
2014-8-14,99.1,85.2,72.7,64.9,63.5,61.6,73,50,31,30.04,29.90,13,2,13,0.00
2014-8-15,102.0,87.9,75.4,71.9,66.6,62.7,70,52,30,29.97,29.79,16,3,16,0.00
2014-8-16,102.7,85.3,79.4,74.5,71.8,66.6,84,66,32,29.89,29.80,22,4,22,0.08
2014-8-17,89.2,79.6,69.8,75.0,72.1,67.7,95,79,58,30.04,29.84,23,3,23,3.34
2014-8-18,92.6,82.6,73.3,76.7,74.0,71.2,93,77,59,29.93,29.80,13,2,13,0.00
2014-8-19,95.9,86.4,76.9,75.0,70.7,66.3,81,61,42,29.90,29.78,18,3,18,0.00
2014-8-20,99.5,87.9,79.2,74.5,71.1,67.2,79,60,37,29.93,29.82,24,8,24,0.00
2014-8-21,100.2,89.0,79.7,75.9,71.3,63.9,82,59,34,29.98,29.88,23,9,23,0.00
2014-8-22,101.7,90.2,80.7,74.8,69.8,61.4,81,54,29,30.00,29.87,20,8,20,0.00
2014-8-23,102.3,90.1,79.8,70.6,67.6,62.1,71,50,28,29.97,29.82,18,6,18,0.00
2014-8-24,102.9,90.2,78.9,72.2,68.9,63.6,71,52,31,29.92,29.79,15,3,15,0.00
2014-8-25,105.2,91.0,79.4,72.6,69.6,65.6,75,52,29,29.94,29.81,10,1,10,0.00
2014-8-26,99.2,89.3,80.2,74.9,71.5,68.1,76,57,41,30.00,29.88,12,1,12,0.00
2014-8-27,99.8,87.7,78.6,72.9,69.5,63.0,80,57,38,30.02,29.90,12,1,12,0.00
2014-8-28,98.6,86.6,75.4,71.4,67.4,63.6,74,55,33,29.95,29.77,14,2,15,0.00
2014-8-29,95.7,82.4,71.5,73.2,70.2,66.4,91,68,42,29.91,29.79,13,2,13,0.07
2014-8-30,98.5,85.8,76.5,74.8,72.0,68.5,86,66,40,29.93,29.81,10,1,12,0.00
2014-8-31,98.0,86.4,76.3,74.7,72.3,70.2,88,65,44,29.93,29.80,22,6,22,0.00
2014-9-1,98.0,87.1,78.1,74.4,72.0,69.6,82,63,44,29.88,29.78,24,9,24,0.00
2014-9-2,99.7,89.6,79.3,74.6,72.6,68.7,81,59,38,29.95,29.82,20,8,20,0.00
2014-9-3,98.0,87.3,78.1,74.2,71.6,68.2,83,62,39,29.96,29.84,22,7,22,0.00
2014-9-4,98.7,88.3,79.2,74.1,70.8,67.1,77,58,37,30.00,29.89,20,6,20,0.00
2014-9-5,99.9,87.8,77.7,73.9,69.8,65.7,80,58,34,30.06,29.91,14,2,14,0.00
2014-9-6,98.5,84.7,75.7,74.3,71.0,66.3,83,65,36,30.05,29.92,23,4,23,0.00
2014-9-7,89.0,79.1,72.2,71.3,69.1,66.7,84,72,55,30.07,29.94,12,5,12,0.00
2014-9-8,97.5,84.7,74.3,73.7,71.1,69.4,90,66,42,30.00,29.86,15,1,15,0.00
2014-9-9,98.7,88.2,77.9,73.1,70.0,66.8,78,57,37,29.93,29.74,20,7,20,0.00
2014-9-10,101.8,90.1,80.0,74.0,70.9,68.5,74,55,37,29.78,29.67,24,11,24,0.00
2014-9-11,90.2,81.8,73.9,74.4,70.8,67.8,82,70,51,29.98,29.78,20,6,20,0.00
2014-9-12,73.9,67.9,60.2,69.4,64.1,55.9,94,88,82,30.21,29.96,26,11,26,0.02
2014-9-13,70.8,63.4,56.8,59.5,55.7,52.7,89,76,64,30.27,30.16,23,9,23,0.00
2014-9-14,80.3,70.9,63.9,66.3,62.9,58.8,92,77,61,30.22,30.09,8,2,8,0.00
2014-9-15,87.5,78.3,71.1,71.0,68.6,65.6,88,73,56,30.12,30.03,0,0,0,0.00
2014-9-16,93.7,83.5,75.2,73.3,70.5,67.6,87,67,44,30.08,29.92,9,0,9,0.00
2014-9-17,99.0,83.4,75.5,73.2,71.4,68.4,88,69,40,29.96,29.79,18,1,18,0.00
2014-9-18,91.0,81.2,75.4,74.6,72.2,67.8,90,75,55,29.89,29.79,15,1,15,0.00
2014-9-19,91.8,79.4,69.7,72.2,69.0,65.9,91,72,51,29.94,29.84,16,1,16,0.00
2014-9-20,95.3,83.3,74.0,73.0,68.4,60.4,89,64,34,29.98,29.88,15,2,15,0.00
2014-9-21,96.8,83.4,70.9,70.6,66.3,62.1,88,59,33,30.07,29.94,13,1,13,0.00
2014-9-22,88.8,80.2,73.3,71.1,57.2,48.3,72,47,25,30.17,30.05,18,7,18,0.00
2014-9-23,87.3,74.5,64.3,55.8,53.3,45.6,71,50,25,30.17,30.03,14,2,14,0.00
2014-9-24,90.6,75.7,61.6,56.0,51.0,44.1,75,46,22,30.16,30.05,12,1,12,0.00
2014-9-25,89.7,76.6,63.0,60.7,57.1,54.1,84,54,30,30.16,30.05,14,1,14,0.00
2014-9-26,90.4,77.6,66.2,66.4,59.6,55.3,81,56,34,30.10,29.98,12,0,12,0.00
2014-9-27,90.5,77.8,67.3,64.9,61.6,58.6,84,60,38,30.05,29.93,13,1,13,0.00
2014-9-28,91.1,78.7,67.8,66.3,63.3,60.1,87,61,40,30.04,29.94,13,1,13,0.00
2014-9-29,91.3,78.8,68.0,66.0,63.7,61.6,83,61,40,30.00,29.86,14,1,14,0.00
2014-9-30,93.8,81.6,71.8,71.0,67.7,65.5,85,65,40,29.87,29.69,17,3,17,0.00
2014-10-1,94.8,83.6,74.4,72.4,69.8,67.8,88,65,44,29.79,29.67,20,4,20,0.00
2014-10-2,94.2,80.7,69.9,74.2,69.6,55.9,90,70,49,29.92,29.60,28,8,28,0.33
2014-10-3,80.8,70.5,60.8,56.8,53.1,46.5,82,56,36,30.20,29.92,20,7,20,0.00
2014-10-4,81.4,66.6,52.6,47.9,40.9,33.1,76,44,18,30.21,29.94,12,1,12,0.00
2014-10-5,87.8,73.1,59.2,64.3,56.9,42.3,78,58,43,29.94,29.76,17,4,17,0.00
2014-10-6,86.6,77.0,67.2,69.8,65.5,60.1,90,69,54,29.87,29.77,18,4,18,0.16
2014-10-7,98.2,82.7,70.4,71.9,67.1,63.7,89,62,34,29.88,29.77,20,5,20,0.00
2014-10-8,90.7,81.4,73.5,71.9,69.7,67.5,87,69,48,29.98,29.88,20,5,20,0.00
2014-10-9,94.1,82.7,75.9,72.8,70.2,66.4,86,68,41,29.95,29.79,20,7,20,0.00
2014-10-10,92.5,83.9,74.5,71.2,67.9,65.0,84,61,42,29.90,29.76,22,5,22,0.02
2014-10-11,65.7,58.6,53.9,54.8,52.7,50.7,91,81,68,30.08,29.92,9,3,13,0.02
2014-10-12,76.2,71.2,66.2,71.8,64.2,54.9,93,79,60,29.92,29.50,25,4,36,0.05
2014-10-13,72.9,63.2,60.4,65.6,55.3,48.6,95,77,58,29.93,29.60,33,11,33,1.30
2014-10-14,75.9,65.2,56.8,51.7,44.5,37.2,78,50,26,30.09,29.93,25,9,25,0.00
2014-10-15,84.8,66.6,51.9,55.4,49.8,44.4,93,61,26,30.09,29.94,9,0,9,0.00
2014-10-16,90.2,72.5,55.7,54.3,50.7,46.3,88,52,23,29.94,29.76,21,4,21,0.00
2014-10-17,89.8,74.8,60.5,60.6,55.1,50.7,80,52,31,29.94,29.77,16,1,16,0.00
2014-10-18,82.3,72.0,65.0,61.2,56.9,51.5,74,59,49,30.08,29.94,13,2,13,0.00
2014-10-19,80.3,68.3,59.3,59.4,55.8,53.0,83,65,47,30.15,30.01,13,1,13,0.00
2014-10-20,86.5,70.8,59.4,64.4,59.4,54.5,88,69,44,30.08,29.97,10,0,10,0.00
2014-10-21,85.4,71.6,60.0,63.6,59.9,57.2,93,69,41,30.09,29.97,10,0,15,0.00
2014-10-22,83.2,71.7,62.6,65.4,60.5,55.9,92,70,48,30.12,30.02,12,0,12,0.00
2014-10-23,82.8,71.4,64.0,59.8,57.4,54.6,78,62,45,30.13,30.02,10,0,10,0.00
2014-10-24,86.7,72.8,62.6,64.1,59.9,56.8,84,66,46,30.14,30.01,12,2,12,0.00
2014-10-25,91.7,76.0,63.3,65.0,61.8,58.3,85,64,40,30.10,29.99,9,1,9,0.00
2014-10-26,88.4,77.1,67.0,62.9,59.8,55.3,80,57,35,29.99,29.80,20,6,20,0.00
2014-10-27,85.5,76.0,67.5,63.9,61.3,56.5,83,62,41,29.83,29.72,25,12,25,0.00
2014-10-28,77.9,72.7,66.1,65.3,60.2,48.8,83,66,48,30.10,29.80,14,6,14,0.00
2014-10-29,79.5,66.6,56.8,53.7,48.5,42.3,75,55,28,30.20,30.09,13,2,13,0.00
2014-10-30,82.3,66.2,55.4,60.8,53.3,47.9,84,65,39,30.15,30.02,12,1,12,0.00
2014-10-31,65.9,60.0,50.2,52.9,43.2,31.8,73,54,41,30.35,30.14,24,8,24,0.00
2014-11-1,63.9,52.2,41.8,35.0,32.1,28.6,72,48,28,30.45,30.27,20,6,20,0.00
2014-11-2,68.9,56.5,44.9,48.4,41.6,34.9,72,58,43,30.34,30.15,18,10,18,0.00
2014-11-3,77.4,66.0,54.4,61.1,55.2,46.9,85,69,53,30.17,30.02,22,10,22,0.00
2014-11-4,70.1,61.6,53.6,64.0,58.0,51.9,94,88,73,30.21,30.01,24,7,24,0.89
2014-11-5,57.6,55.0,51.9,55.3,52.9,50.2,95,93,90,30.24,30.14,10,4,10,0.12
2014-11-6,71.2,58.1,46.9,52.7,46.3,40.2,92,69,37,30.33,30.23,14,3,14,0.00
2014-11-7,69.8,56.1,44.1,46.1,42.4,36.6,92,64,34,30.29,30.01,12,2,12,0.01
2014-11-8,69.5,57.8,47.8,50.0,42.9,38.2,92,62,32,30.16,29.99,27,6,27,0.00
2014-11-9,74.9,57.9,41.9,46.3,42.4,38.6,91,61,32,30.15,29.81,14,4,17,0.00
2014-11-10,80.2,67.7,55.5,58.9,51.2,44.2,73,57,39,29.82,29.57,30,13,30,0.00
2014-11-11,67.8,46.2,39.9,58.8,32.2,25.5,78,58,48,30.25,29.62,29,13,29,0.00
2014-11-12,40.7,36.5,33.7,25.8,20.8,14.9,63,53,43,30.50,30.25,26,14,26,0.00
2014-11-13,38.6,34.6,31.4,17.3,13.2,10.0,53,41,33,30.62,30.48,20,10,20,0.00
2014-11-14,42.6,36.7,29.6,20.7,17.9,15.4,61,47,34,30.48,30.28,10,4,10,0.00
2014-11-15,46.6,42.7,40.1,40.5,31.7,20.2,93,67,44,30.28,30.03,20,9,20,0.01
2014-11-16,41.9,38.1,29.6,40.1,35.0,24.8,94,88,75,30.28,29.98,20,9,20,0.03
2014-11-17,44.2,34.3,26.8,25.2,22.3,18.5,83,64,37,30.45,30.27,17,6,18,0.00
2014-11-18,57.7,42.3,26.9,28.6,23.4,19.4,88,53,23,30.49,30.28,16,6,16,0.00
2014-11-19,67.7,50.4,39.4,40.7,32.2,22.5,79,51,35,30.28,30.09,17,5,17,0.00
2014-11-20,73.3,57.7,42.5,58.6,48.2,38.0,94,73,43,30.11,29.94,16,3,16,0.00
2014-11-21,69.3,63.8,59.9,63.2,60.3,57.7,94,89,80,30.09,29.99,17,5,17,0.07
2014-11-22,62.6,60.7,59.1,60.1,58.7,57.7,95,93,89,30.06,29.77,18,8,18,0.36
2014-11-23,78.2,57.8,45.5,47.6,41.0,37.0,73,57,25,29.94,29.34,18,8,30,0.01
2014-11-24,61.9,52.6,41.5,36.9,31.6,24.2,74,48,27,30.14,29.93,16,2,16,0.00
2014-11-25,62.8,46.7,37.6,36.7,33.9,29.5,89,65,29,30.25,30.07,12,1,12,0.00
2014-11-26,64.6,53.9,42.9,39.2,35.0,30.0,70,50,36,30.37,30.00,14,5,14,0.00
2014-11-27,62.4,48.9,39.4,34.1,29.1,22.8,71,49,22,30.53,30.33,14,2,14,0.00
2014-11-28,70.1,56.4,40.3,53.5,43.5,31.6,75,62,53,30.33,29.95,24,7,24,0.00
2014-11-29,78.3,65.6,54.5,60.2,53.4,47.9,86,66,42,29.95,29.80,25,10,25,0.00
2014-11-30,79.8,70.8,64.6,62.4,60.5,58.5,89,71,49,30.07,29.86,23,11,23,0.00
2014-12-1,67.7,40.4,33.7,62.2,27.7,22.1,83,61,46,30.47,30.07,25,11,25,0.00
2014-12-2,49.8,40.5,32.6,42.9,27.0,20.5,77,59,43,30.46,30.13,15,3,15,0.00
2014-12-3,59.9,55.2,49.9,54.7,49.6,43.3,86,81,77,30.19,30.09,12,2,12,0.00
2014-12-4,65.6,61.0,57.3,59.9,57.0,53.8,89,87,80,30.16,30.01,16,2,16,0.00
2014-12-5,78.5,67.9,57.5,65.5,61.2,52.6,95,80,58,30.19,29.93,17,6,20,0.03
2014-12-6,67.2,57.7,49.4,52.7,49.4,44.7,84,75,52,30.40,30.18,17,8,17,0.00
2014-12-7,54.8,50.4,45.6,48.7,46.2,42.6,93,85,75,30.42,30.26,8,2,8,0.00
2014-12-8,59.3,50.3,43.8,48.9,45.7,41.1,93,85,68,30.36,30.27,12,1,12,0.00
2014-12-9,55.8,46.4,40.5,50.6,44.0,38.9,96,91,79,30.38,30.23,0,0,0,0.01
2014-12-10,58.2,51.2,43.4,49.5,46.1,41.8,95,83,70,30.25,30.12,0,0,0,0.01
2014-12-11,66.7,59.7,53.3,58.7,54.1,48.8,89,82,73,30.18,30.09,12,0,14,0.00
2014-12-12,72.3,64.0,59.0,60.9,58.6,57.1,94,83,66,30.23,30.12,10,1,13,0.01
2014-12-13,72.3,64.2,58.6,59.0,57.1,54.1,90,78,62,30.18,30.01,18,6,18,0.00
2014-12-14,67.8,64.9,61.1,64.2,61.1,58.0,92,88,82,30.01,29.75,21,9,21,0.16
2014-12-15,65.4,58.9,52.3,61.9,41.2,32.6,89,54,34,30.17,29.76,22,8,22,0.01
2014-12-16,53.7,46.9,41.2,36.6,32.5,28.7,76,58,47,30.37,30.17,19,7,19,0.00
2014-12-17,48.0,44.8,42.1,41.5,37.7,34.6,94,77,67,30.29,30.04,15,2,15,0.40
2014-12-18,49.7,46.6,42.6,47.6,44.3,40.7,96,92,84,30.18,30.09,9,1,9,0.01
2014-12-19,49.9,47.9,46.3,46.4,45.1,43.6,94,90,87,30.21,30.10,12,6,12,0.06
2014-12-20,48.7,47.2,45.6,45.3,43.9,42.6,91,88,86,30.25,30.16,9,2,9,0.00
2014-12-21,53.8,50.5,48.2,50.0,46.3,44.5,90,85,80,30.17,29.69,18,6,18,0.00
2014-12-22,64.9,57.4,52.8,52.8,48.5,44.1,89,73,50,29.70,29.53,22,8,22,0.00
2014-12-23,54.4,49.7,45.1,46.6,40.0,31.9,93,70,49,29.93,29.64,20,7,20,0.46
2014-12-24,52.1,45.0,38.2,35.2,33.4,31.6,78,64,49,30.04,29.92,20,9,22,0.00
2014-12-25,62.6,51.0,38.3,44.6,33.6,29.3,76,54,30,30.01,29.88,26,10,26,0.00
2014-12-26,65.9,58.8,50.6,61.8,54.3,44.1,93,85,73,29.94,29.82,13,3,13,0.00
2014-12-27,63.5,43.5,37.0,61.3,38.0,28.9,94,81,72,30.30,29.94,26,11,26,0.10
2014-12-28,49.4,39.9,34.6,29.2,27.2,24.8,76,61,39,30.30,30.12,13,4,13,0.00
2014-12-29,54.3,41.8,31.5,38.5,33.4,26.8,92,73,53,30.25,30.04,15,5,15,0.00
2014-12-30,46.6,42.7,36.9,38.7,32.5,28.9,86,68,51,30.55,30.24,20,9,20,0.00
2014-12-31,38.2,35.1,33.4,29.1,26.5,25.6,80,71,67,30.63,30.41,20,9,20,0.00
2015-1-1,37.4,35.3,33.0,36.1,31.9,25.5,95,88,68,30.42,30.20,8,4,8,0.59
2015-1-2,41.5,39.6,37.4,41.0,38.4,36.1,100,95,95,30.23,29.92,12,5,12,0.30